Portada
METAR-TAF:

METAR-TAF

Aeroports :

Mae Hong Son, Tailàndia

latitud: 19-18N, longitud: 097-50E, altitud: 267 m

Observació

L'informe es va fer fa 11 minuts, a les 01:00 UTC
Temperatura 26°C
Humitat 79%
Pressió 1011 hPa
Visibilitat: 8000 m
Escasses núvols a una alçada de 1200 ft

METAR: VTCH 180100Z /////KT 8000 FEW012 26/22 Q1011

Hora: 08:11 (01:11 UTC)

Pronòstic

L'informe es va fer fa 2 hores i 11 minuts, a les 23:00 UTC
Pronòstic vàlid del 18 a les 00 UTC al 18 a les 24 UTC
Vent 5 kt del Sud-Oest
Visibilitat 10 km o més
Núvols disperses a una alçada de 2500 ft

TAF: VTCH 172300Z 1800/1824 22005KT 9999 SCT025

Observacions i pronòstics meteorològics de més de 4000 aeroports (METAR i TAF).

Les estacions disponibles són els punts grocs i vermells al mapa.

Posi el ratolí al punt desitjat per veure el nom de l'estació.

Feu clic per veure les observacions i els pronòstics meteorològics.

Per canviar el mapa: feu clic els botons verds amb una creu de color negre per apropar; al botó verd amb un guió per allunyar la imatge; o en les fletxes verdes per a mapes adjacents.


METAR-TAF: